Corral, Idaho
Current Conditions -  °F | °C
As of 5:35 AM on Sunday 21 Dec 2014 (Local Time) from KSUN Reporting Station
Light Snow Light Snow  
Wind Chill: 32°   Ceiling: 600
Heat Index: 32°   Visibility: 1.2mi
Dew Point: 32°   Wind: 0mph
Humidity: 100%   Direction: NA
Pressure: 29.82"   Gusts: NA
Location:  43.34°N, 114.95°W
Report Text: KSUN 211235Z AUTO 00000KT 1 1/4SM -SN OVC006 00/00 A2982 RMK AO2 P0004
Loading
Personal Weather Stations






























Interactive Weather Map New forecast layout! Learn more

10-Day Weather Forecast

Advertisements
Track Severe Weather on mobile